Time;durP1;ratioP1;P1;durP2;ratioP2;P2;SDS_P1;SDS_P2;PMS_P1;PMS_P2;Temp;Humidity;BMP_temperature;BMP_pressure;BME280_temperature;BME280_humidity;BME280_pressure;Samples;Min_cycle;Max_cycle;Signal;HPM_P1;HPM_P2
2022/07/23 00:00:29;;;;;;;6.60;6.00;;;;;;;;;;4945334;28;20866;-59
2022/07/23 00:02:55;;;;;;;5.67;5.10;;;;;;;;;;4943847;28;20435;-60
2022/07/23 00:05:21;;;;;;;5.57;5.03;;;;;;;;;;4941146;28;20538;-60
2022/07/23 00:07:47;;;;;;;5.80;5.30;;;;;;;;;;4945505;28;20206;-60
2022/07/23 00:10:13;;;;;;;7.13;5.00;;;;;;;;;;4950335;28;20542;-60
2022/07/23 00:12:39;;;;;;;6.00;5.10;;;;;;;;;;4932498;28;20461;-59
2022/07/23 00:15:05;;;;;;;7.07;5.77;;;;;;;;;;4951065;28;20445;-59
2022/07/23 00:17:31;;;;;;;6.27;4.90;;;;;;;;;;4947425;28;20442;-61
2022/07/23 00:19:57;;;;;;;6.10;5.50;;;;;;;;;;4943189;28;20859;-60
2022/07/23 00:22:23;;;;;;;8.60;5.40;;;;;;;;;;4939678;28;20446;-60
2022/07/23 00:24:49;;;;;;;5.13;4.63;;;;;;;;;;4947258;28;20458;-59
2022/07/23 00:27:15;;;;;;;6.50;5.90;;;;;;;;;;4911187;28;21830;-60
2022/07/23 00:29:41;;;;;;;6.67;5.20;;;;;;;;;;4951904;28;20187;-59
2022/07/23 00:32:07;;;;;;;6.63;5.63;;;;;;;;;;4929775;28;20239;-59
2022/07/23 00:34:33;;;;;;;7.20;5.30;;;;;;;;;;4948246;28;20510;-59
2022/07/23 00:36:59;;;;;;;6.07;5.30;;;;;;;;;;4945820;28;20182;-59
2022/07/23 00:39:25;;;;;;;5.43;4.90;;;;;;;;;;4945579;28;20431;-61
2022/07/23 00:41:51;;;;;;;5.87;5.27;;;;;;;;;;4949869;28;20187;-61
2022/07/23 00:44:24;;;;;;;7.20;5.23;;;;;;;;;;4949568;28;20179;-59
2022/07/23 00:46:53;;;;;;;6.13;5.57;;;;;;;;;;4921529;28;20544;-59
2022/07/23 00:49:26;;;;;;;5.53;4.70;;;;;;;;;;4949269;28;20445;-60
2022/07/23 00:51:52;;;;;;;5.60;5.10;;;;;;;;;;4930391;28;20442;-62
2022/07/23 00:54:18;;;;;;;6.07;5.47;;;;;;;;;;4951568;28;20874;-60
2022/07/23 00:56:44;;;;;;;5.60;5.10;;;;;;;;;;4945112;28;20424;-61
2022/07/23 00:59:11;;;;;;;5.67;5.07;;;;;;;;;;4952820;28;20454;-61
2022/07/23 01:01:37;;;;;;;5.73;5.00;;;;;;;;;;4917966;28;21316;-60
2022/07/23 01:04:03;;;;;;;6.07;5.47;;;;;;;;;;4947658;28;20465;-59
2022/07/23 01:06:28;;;;;;;5.30;4.80;;;;;;;;;;4947298;28;20438;-62
2022/07/23 01:08:55;;;;;;;7.27;4.77;;;;;;;;;;4948211;28;20509;-61
2022/07/23 01:11:21;;;;;;;4.67;4.10;;;;;;;;;;4930438;28;20426;-60
2022/07/23 01:13:47;;;;;;;5.20;4.70;;;;;;;;;;4942587;28;20459;-60
2022/07/23 01:16:13;;;;;;;5.13;4.63;;;;;;;;;;4941523;28;21038;-60
2022/07/23 01:18:39;;;;;;;5.30;4.80;;;;;;;;;;4949816;28;20497;-60
2022/07/23 01:21:05;;;;;;;5.63;5.13;;;;;;;;;;4949400;28;20674;-60
2022/07/23 01:23:31;;;;;;;5.40;4.90;;;;;;;;;;4943070;28;20182;-61
2022/07/23 01:25:57;;;;;;;5.63;5.13;;;;;;;;;;4950306;28;20847;-60
2022/07/23 01:28:23;;;;;;;5.10;4.60;;;;;;;;;;4945861;28;20442;-60
2022/07/23 01:30:49;;;;;;;5.90;5.13;;;;;;;;;;4948452;28;20191;-60
2022/07/23 01:33:15;;;;;;;6.60;5.07;;;;;;;;;;4936584;28;20533;-60
2022/07/23 01:36:26;;;;;;;4.57;4.00;;;;;;;;;;4945441;28;20953;-60
2022/07/23 01:38:57;;;;;;;6.33;5.40;;;;;;;;;;4944450;28;20446;-59
2022/07/23 01:41:22;;;;;;;5.80;5.30;;;;;;;;;;4946823;28;21191;-59
2022/07/23 01:43:48;;;;;;;6.63;5.47;;;;;;;;;;4955708;28;20589;-59
2022/07/23 01:46:14;;;;;;;5.63;5.03;;;;;;;;;;4949716;28;20298;-62
2022/07/23 01:48:41;;;;;;;5.70;4.77;;;;;;;;;;4949849;28;20608;-60
2022/07/23 01:51:08;;;;;;;6.03;5.43;;;;;;;;;;4938893;28;20478;-60
2022/07/23 01:53:34;;;;;;;5.87;5.27;;;;;;;;;;4941796;28;20443;-59
2022/07/23 01:56:00;;;;;;;6.07;5.47;;;;;;;;;;4949437;28;21006;-59
2022/07/23 01:58:26;;;;;;;5.97;5.40;;;;;;;;;;4964310;28;20439;-60
2022/07/23 02:00:53;;;;;;;6.43;5.00;;;;;;;;;;4948980;28;20478;-59
2022/07/23 02:03:19;;;;;;;5.63;5.07;;;;;;;;;;4950196;28;20427;-59
2022/07/23 02:05:45;;;;;;;6.40;5.63;;;;;;;;;;4946325;28;20827;-59
2022/07/23 02:08:10;;;;;;;6.13;5.53;;;;;;;;;;4941634;28;20952;-59
2022/07/23 02:10:36;;;;;;;8.10;7.30;;;;;;;;;;4950153;28;20442;-59
2022/07/23 02:13:02;;;;;;;5.80;5.20;;;;;;;;;;4910751;28;20194;-60
2022/07/23 02:15:28;;;;;;;7.73;5.20;;;;;;;;;;4946749;28;20190;-60
2022/07/23 02:17:55;;;;;;;5.47;4.97;;;;;;;;;;4942697;28;20419;-59
2022/07/23 02:20:21;;;;;;;7.33;5.67;;;;;;;;;;4950214;28;21198;-60
2022/07/23 02:22:47;;;;;;;5.60;5.10;;;;;;;;;;4939550;28;20435;-60
2022/07/23 02:25:13;;;;;;;5.80;5.20;;;;;;;;;;4943389;28;20947;-59
2022/07/23 02:27:39;;;;;;;6.40;5.80;;;;;;;;;;4946846;28;20453;-59
2022/07/23 02:30:05;;;;;;;6.13;5.53;;;;;;;;;;4949283;28;20450;-60
2022/07/23 02:32:31;;;;;;;6.20;5.40;;;;;;;;;;4922875;28;20202;-59
2022/07/23 02:34:57;;;;;;;7.63;5.43;;;;;;;;;;4946571;28;20798;-60
2022/07/23 02:37:23;;;;;;;6.93;5.50;;;;;;;;;;4944173;28;20521;-60
2022/07/23 02:39:50;;;;;;;6.03;5.43;;;;;;;;;;4947607;28;20958;-61
2022/07/23 02:42:16;;;;;;;6.23;5.63;;;;;;;;;;4926870;28;20454;-60
2022/07/23 02:44:42;;;;;;;6.80;5.90;;;;;;;;;;4945618;28;20498;-60
2022/07/23 02:47:08;;;;;;;5.73;5.23;;;;;;;;;;4907165;28;20459;-61
2022/07/23 02:49:34;;;;;;;5.57;5.07;;;;;;;;;;4943406;28;20447;-61
2022/07/23 02:52:00;;;;;;;6.70;5.23;;;;;;;;;;4921712;28;20187;-59
2022/07/23 02:54:26;;;;;;;5.60;5.10;;;;;;;;;;4946399;28;20430;-58
2022/07/23 02:56:52;;;;;;;5.73;5.23;;;;;;;;;;4938560;28;20435;-60
2022/07/23 02:59:18;;;;;;;6.10;5.40;;;;;;;;;;4947638;28;20498;-59
2022/07/23 03:01:44;;;;;;;6.17;4.87;;;;;;;;;;4944759;28;20254;-60
2022/07/23 03:04:09;;;;;;;6.23;4.63;;;;;;;;;;4945661;28;20439;-60
2022/07/23 03:06:35;;;;;;;6.40;5.40;;;;;;;;;;4939048;28;20442;-60
2022/07/23 03:09:02;;;;;;;5.43;4.93;;;;;;;;;;4948217;28;20230;-60
2022/07/23 03:11:28;;;;;;;5.73;4.63;;;;;;;;;;4926620;28;20470;-60
2022/07/23 03:13:54;;;;;;;5.80;5.30;;;;;;;;;;4946942;28;20927;-61
2022/07/23 03:16:19;;;;;;;6.50;4.67;;;;;;;;;;4942016;28;20451;-59
2022/07/23 03:18:45;;;;;;;5.70;5.10;;;;;;;;;;4943382;28;20211;-59
2022/07/23 03:21:12;;;;;;;5.90;4.87;;;;;;;;;;4922517;28;20257;-61
2022/07/23 03:23:37;;;;;;;5.83;5.23;;;;;;;;;;4935961;28;20618;-59
2022/07/23 03:26:03;;;;;;;7.70;5.70;;;;;;;;;;4947383;28;20554;-60
2022/07/23 03:28:30;;;;;;;4.93;4.43;;;;;;;;;;4951216;28;20462;-59
2022/07/23 03:30:56;;;;;;;6.83;5.70;;;;;;;;;;4953983;28;20438;-59
2022/07/23 03:33:22;;;;;;;5.60;5.10;;;;;;;;;;4933678;28;20506;-59
2022/07/23 03:35:48;;;;;;;6.10;5.13;;;;;;;;;;4947969;28;20430;-58
2022/07/23 03:38:14;;;;;;;5.83;5.23;;;;;;;;;;4944599;28;20443;-60
2022/07/23 03:40:41;;;;;;;5.53;5.03;;;;;;;;;;4963895;28;20984;-60
2022/07/23 03:43:09;;;;;;;6.63;5.80;;;;;;;;;;4952513;28;20441;-60
2022/07/23 03:45:35;;;;;;;6.13;5.50;;;;;;;;;;4944097;28;20439;-59
2022/07/23 03:48:01;;;;;;;6.63;5.93;;;;;;;;;;4926161;28;20967;-60
2022/07/23 03:50:27;;;;;;;6.53;5.83;;;;;;;;;;4943970;28;20449;-58
2022/07/23 03:52:53;;;;;;;6.13;5.23;;;;;;;;;;4943622;28;20432;-59
2022/07/23 03:55:19;;;;;;;5.90;5.13;;;;;;;;;;4944588;28;21571;-58
2022/07/23 03:57:45;;;;;;;6.27;5.67;;;;;;;;;;4907706;28;20963;-59
2022/07/23 04:00:27;;;;;;;6.53;5.90;;;;;;;;;;4944007;28;20477;-59
2022/07/23 04:02:57;;;;;;;5.97;5.37;;;;;;;;;;4931019;28;20190;-61
2022/07/23 04:05:46;;;;;;;6.70;5.90;;;;;;;;;;4943181;28;20438;-59
2022/07/23 04:08:15;;;;;;;6.33;5.73;;;;;;;;;;4939110;28;20490;-60
2022/07/23 04:10:41;;;;;;;7.17;6.50;;;;;;;;;;4934743;28;20529;-59
2022/07/23 04:13:07;;;;;;;6.70;5.40;;;;;;;;;;4937401;28;20446;-60
2022/07/23 04:15:33;;;;;;;6.73;6.13;;;;;;;;;;4936105;28;20638;-58
2022/07/23 04:17:59;;;;;;;5.73;5.23;;;;;;;;;;4937265;28;20447;-59
2022/07/23 04:20:25;;;;;;;7.90;5.93;;;;;;;;;;4944566;28;20967;-59
2022/07/23 04:22:50;;;;;;;9.30;6.10;;;;;;;;;;4945187;28;20434;-59
2022/07/23 04:25:17;;;;;;;6.03;5.43;;;;;;;;;;4941781;28;20255;-58
2022/07/23 04:27:43;;;;;;;5.83;5.30;;;;;;;;;;4924639;28;20299;-60
2022/07/23 04:30:09;;;;;;;6.43;5.77;;;;;;;;;;4942635;28;20541;-58
2022/07/23 04:32:35;;;;;;;7.90;5.97;;;;;;;;;;4907455;28;20467;-59
2022/07/23 04:35:02;;;;;;;7.47;5.80;;;;;;;;;;4950711;28;20467;-59
2022/07/23 04:37:28;;;;;;;5.93;5.33;;;;;;;;;;4945285;28;20189;-61
2022/07/23 04:39:54;;;;;;;7.27;5.30;;;;;;;;;;4948747;28;20486;-60
2022/07/23 04:42:19;;;;;;;6.40;5.30;;;;;;;;;;4945389;28;20224;-60
2022/07/23 04:44:45;;;;;;;6.40;5.80;;;;;;;;;;4948196;28;20196;-60
2022/07/23 04:47:11;;;;;;;6.37;5.77;;;;;;;;;;4929656;28;20192;-60
2022/07/23 04:49:41;;;;;;;5.70;5.20;;;;;;;;;;4950616;28;20187;-60
2022/07/23 04:52:06;;;;;;;7.90;5.80;;;;;;;;;;4946142;28;20458;-60
2022/07/23 04:54:32;;;;;;;7.00;6.30;;;;;;;;;;4946863;28;20466;-59
2022/07/23 04:57:05;;;;;;;7.10;5.90;;;;;;;;;;4948426;28;20442;-59
2022/07/23 04:59:31;;;;;;;7.40;5.93;;;;;;;;;;4964972;28;20644;-60
2022/07/23 05:01:57;;;;;;;6.03;5.40;;;;;;;;;;4948667;28;20477;-60
2022/07/23 05:04:31;;;;;;;7.07;6.10;;;;;;;;;;4949792;28;20804;-62
2022/07/23 05:06:57;;;;;;;5.57;5.03;;;;;;;;;;4907211;28;20461;-60
2022/07/23 05:09:24;;;;;;;6.73;6.10;;;;;;;;;;4953222;28;20541;-60
2022/07/23 05:11:50;;;;;;;6.60;5.90;;;;;;;;;;4941288;28;20514;-60
2022/07/23 05:14:16;;;;;;;6.47;5.87;;;;;;;;;;4942894;28;20471;-60
2022/07/23 05:16:42;;;;;;;6.40;5.80;;;;;;;;;;4929641;28;20533;-59
2022/07/23 05:19:08;;;;;;;7.13;6.43;;;;;;;;;;4942146;28;20187;-58
2022/07/23 05:21:34;;;;;;;6.63;5.93;;;;;;;;;;4919328;28;20227;-60
2022/07/23 05:24:00;;;;;;;6.70;6.00;;;;;;;;;;4947332;28;20443;-59
2022/07/23 05:26:26;;;;;;;7.20;5.87;;;;;;;;;;4945943;28;20444;-59
2022/07/23 05:28:56;;;;;;;6.10;5.50;;;;;;;;;;4948110;28;20446;-60
2022/07/23 05:31:25;;;;;;;6.97;5.60;;;;;;;;;;4945871;28;20454;-59
2022/07/23 05:33:51;;;;;;;6.67;5.97;;;;;;;;;;4948313;28;20457;-60
2022/07/23 05:36:18;;;;;;;6.60;6.00;;;;;;;;;;4939964;28;20450;-60
2022/07/23 05:38:44;;;;;;;6.07;5.50;;;;;;;;;;4935608;29;20667;-59
2022/07/23 05:41:10;;;;;;;7.30;5.03;;;;;;;;;;4925406;28;20600;-60
2022/07/23 05:43:36;;;;;;;7.63;6.50;;;;;;;;;;4950289;28;20866;-61
2022/07/23 05:46:04;;;;;;;7.50;6.80;;;;;;;;;;4927204;28;20455;-60
2022/07/23 05:48:30;;;;;;;6.27;5.67;;;;;;;;;;4948337;28;20219;-59
2022/07/23 05:50:56;;;;;;;7.37;5.70;;;;;;;;;;4948939;28;20474;-59
2022/07/23 05:53:23;;;;;;;7.20;5.53;;;;;;;;;;4949783;28;20555;-59
2022/07/23 05:55:49;;;;;;;7.07;6.37;;;;;;;;;;4931529;28;20522;-61
2022/07/23 05:58:15;;;;;;;7.97;5.60;;;;;;;;;;4950074;28;20510;-61
2022/07/23 06:00:50;;;;;;;7.00;6.33;;;;;;;;;;4950585;28;20483;-60
2022/07/23 06:03:20;;;;;;;7.60;6.90;;;;;;;;;;4953592;28;20202;-61
2022/07/23 06:05:46;;;;;;;9.20;5.73;;;;;;;;;;4946250;28;20446;-60
2022/07/23 06:08:12;;;;;;;7.53;6.03;;;;;;;;;;4964333;28;20469;-60
2022/07/23 06:13:44;;;;;;;8.73;6.73;;;;;;;;;;4895590;28;20488;-61
2022/07/23 06:16:17;;;;;;;6.10;5.60;;;;;;;;;;4948536;28;20963;-60
2022/07/23 06:18:46;;;;;;;7.43;5.53;;;;;;;;;;4940290;28;20544;-60
2022/07/23 06:21:13;;;;;;;7.37;5.60;;;;;;;;;;4951603;28;20506;-61
2022/07/23 06:23:41;;;;;;;7.10;6.43;;;;;;;;;;4946391;28;21201;-60
2022/07/23 06:26:12;;;;;;;7.70;6.83;;;;;;;;;;4947885;28;20469;-63
2022/07/23 06:28:40;;;;;;;7.10;6.40;;;;;;;;;;4904843;28;22152;-59
2022/07/23 06:31:07;;;;;;;7.90;6.90;;;;;;;;;;4942900;28;20498;-60
2022/07/23 06:33:34;;;;;;;7.80;6.70;;;;;;;;;;4935071;28;21056;-60
2022/07/23 06:36:06;;;;;;;7.17;6.47;;;;;;;;;;4951269;28;21012;-59
2022/07/23 06:38:43;;;;;;;7.67;6.90;;;;;;;;;;4929065;28;20434;-61
2022/07/23 06:41:13;;;;;;;7.50;6.73;;;;;;;;;;4941829;28;20474;-61
2022/07/23 06:44:10;;;;;;;6.43;5.87;;;;;;;;;;4947573;28;20446;-61
2022/07/23 06:46:42;;;;;;;7.20;6.13;;;;;;;;;;4940166;28;20461;-59
2022/07/23 06:49:08;;;;;;;6.70;6.10;;;;;;;;;;4945072;28;20434;-60
2022/07/23 06:51:34;;;;;;;7.77;5.80;;;;;;;;;;4947424;28;20589;-60
2022/07/23 06:54:01;;;;;;;6.23;5.60;;;;;;;;;;4922949;28;20443;-60
2022/07/23 06:56:27;;;;;;;6.00;5.40;;;;;;;;;;4957384;28;20982;-60
2022/07/23 06:58:59;;;;;;;7.50;5.73;;;;;;;;;;4907678;28;20485;-60
2022/07/23 07:01:29;;;;;;;6.90;6.20;;;;;;;;;;4939012;28;20214;-59
2022/07/23 07:03:55;;;;;;;10.00;6.70;;;;;;;;;;4941980;28;20450;-58
2022/07/23 07:06:26;;;;;;;6.97;5.97;;;;;;;;;;4949334;28;20473;-60
2022/07/23 07:08:52;;;;;;;6.83;6.20;;;;;;;;;;4936553;28;20442;-59
2022/07/23 07:11:18;;;;;;;8.07;6.80;;;;;;;;;;4939062;28;21189;-60
2022/07/23 07:13:51;;;;;;;9.20;6.10;;;;;;;;;;4925614;28;23822;-59
2022/07/23 07:16:50;;;;;;;8.57;7.17;;;;;;;;;;4935661;28;20474;-58
2022/07/23 07:19:21;;;;;;;7.77;6.13;;;;;;;;;;4931166;28;21002;-59
2022/07/23 07:21:59;;;;;;;7.40;6.70;;;;;;;;;;4935611;28;20475;-60
2022/07/23 07:24:25;;;;;;;8.03;7.23;;;;;;;;;;4940164;28;20423;-60
2022/07/23 07:26:58;;;;;;;6.90;6.30;;;;;;;;;;4930180;28;20786;-63
2022/07/23 07:29:25;;;;;;;9.00;7.20;;;;;;;;;;4912942;28;21428;-58
2022/07/23 07:31:51;;;;;;;9.67;8.33;;;;;;;;;;4938364;28;20498;-59
2022/07/23 07:34:17;;;;;;;8.90;6.77;;;;;;;;;;4931601;28;20535;-57
2022/07/23 07:36:43;;;;;;;8.27;6.90;;;;;;;;;;4940322;28;20554;-57
2022/07/23 07:39:10;;;;;;;9.00;6.53;;;;;;;;;;4938853;28;20187;-60
2022/07/23 07:41:36;;;;;;;7.73;6.90;;;;;;;;;;4947809;28;20506;-60
2022/07/23 07:47:13;;;;;;;8.60;7.80;;;;;;;;;;4909613;28;20465;-60
2022/07/23 07:49:47;;;;;;;7.83;5.83;;;;;;;;;;4921760;28;20447;-61
2022/07/23 07:52:14;;;;;;;8.10;7.23;;;;;;;;;;4942251;28;20450;-59
2022/07/23 07:54:40;;;;;;;8.10;7.30;;;;;;;;;;4939299;28;20427;-59
2022/07/23 07:57:06;;;;;;;7.70;6.23;;;;;;;;;;4949629;28;20585;-59
2022/07/23 07:59:32;;;;;;;7.73;6.90;;;;;;;;;;4927301;28;20458;-60
2022/07/23 08:01:59;;;;;;;6.83;6.13;;;;;;;;;;4943446;28;20453;-59
2022/07/23 08:04:28;;;;;;;8.87;6.53;;;;;;;;;;4921338;28;20455;-58
2022/07/23 08:06:56;;;;;;;7.43;6.70;;;;;;;;;;4937915;28;20187;-59
2022/07/23 08:12:26;;;;;;;6.37;5.60;;;;;;;;;;4932706;28;20484;-61
2022/07/23 08:14:52;;;;;;;6.10;5.50;;;;;;;;;;4929184;28;20955;-59
2022/07/23 08:17:24;;;;;;;7.43;6.60;;;;;;;;;;4929999;28;20180;-60
2022/07/23 08:22:59;;;;;;;6.27;5.47;;;;;;;;;;4903384;28;20453;-60
2022/07/23 08:25:35;;;;;;;6.93;5.80;;;;;;;;;;4939261;28;20454;-59
2022/07/23 08:28:02;;;;;;;6.67;5.87;;;;;;;;;;4941939;28;20450;-60
2022/07/23 08:30:28;;;;;;;8.47;7.70;;;;;;;;;;4938228;28;20505;-60
2022/07/23 08:32:54;;;;;;;6.83;5.37;;;;;;;;;;4927665;28;20476;-61
2022/07/23 08:35:31;;;;;;;6.90;6.27;;;;;;;;;;4949491;28;20478;-60
2022/07/23 08:37:58;;;;;;;7.27;4.93;;;;;;;;;;4920855;28;20493;-62
2022/07/23 08:40:28;;;;;;;6.57;5.90;;;;;;;;;;4934477;28;20485;-60
2022/07/23 08:42:55;;;;;;;7.30;6.60;;;;;;;;;;4923445;28;20998;-58
2022/07/23 08:45:22;;;;;;;6.90;6.20;;;;;;;;;;4946948;28;20522;-59
2022/07/23 08:48:00;;;;;;;7.40;6.67;;;;;;;;;;4925799;28;20890;-60
2022/07/23 08:51:13;;;;;;;6.17;5.53;;;;;;;;;;4944400;28;21298;-60
2022/07/23 08:53:43;;;;;;;6.97;6.27;;;;;;;;;;4929025;28;20431;-57
2022/07/23 08:56:09;;;;;;;7.30;6.60;;;;;;;;;;4922361;28;21389;-58
2022/07/23 08:58:38;;;;;;;6.10;5.50;;;;;;;;;;4924668;28;22974;-61
2022/07/23 09:01:05;;;;;;;6.07;5.57;;;;;;;;;;4903036;28;20485;-62
2022/07/23 09:03:32;;;;;;;7.00;6.30;;;;;;;;;;4943164;28;20729;-61
2022/07/23 09:06:01;;;;;;;6.30;5.70;;;;;;;;;;4922913;28;20529;-63
2022/07/23 09:08:34;;;;;;;7.30;6.60;;;;;;;;;;4924262;28;20522;-61
2022/07/23 09:11:02;;;;;;;5.73;5.23;;;;;;;;;;4920276;28;20435;-60
2022/07/23 09:13:28;;;;;;;7.07;6.37;;;;;;;;;;4946792;28;20446;-59
2022/07/23 09:15:54;;;;;;;6.47;5.87;;;;;;;;;;4932204;28;20501;-59
2022/07/23 09:18:40;;;;;;;7.40;5.93;;;;;;;;;;4940733;28;20270;-63
2022/07/23 09:21:14;;;;;;;6.93;6.30;;;;;;;;;;4935069;28;20566;-60
2022/07/23 09:23:51;;;;;;;9.13;5.83;;;;;;;;;;4940960;28;20986;-60
2022/07/23 09:26:20;;;;;;;5.90;5.33;;;;;;;;;;4911984;28;20453;-61
2022/07/23 09:28:56;;;;;;;15.33;6.60;;;;;;;;;;4944442;28;20960;-62
2022/07/23 09:31:23;;;;;;;6.37;5.47;;;;;;;;;;4941243;28;20493;-62
2022/07/23 09:33:49;;;;;;;6.00;5.40;;;;;;;;;;4940052;28;20824;-61
2022/07/23 09:36:15;;;;;;;6.70;6.00;;;;;;;;;;4917340;28;20446;-61
2022/07/23 09:38:52;;;;;;;6.50;5.83;;;;;;;;;;4935420;28;20442;-61
2022/07/23 09:41:19;;;;;;;5.87;5.27;;;;;;;;;;4917305;28;20963;-61
2022/07/23 09:43:45;;;;;;;8.10;7.40;;;;;;;;;;4936207;28;20439;-61
2022/07/23 09:46:24;;;;;;;7.20;6.50;;;;;;;;;;4927856;28;21068;-60
2022/07/23 09:48:51;;;;;;;6.97;5.87;;;;;;;;;;4933338;28;20434;-61
2022/07/23 09:51:27;;;;;;;6.40;5.80;;;;;;;;;;4919387;28;20952;-60
2022/07/23 09:53:57;;;;;;;6.93;6.33;;;;;;;;;;4940689;28;20432;-60
2022/07/23 09:56:23;;;;;;;6.17;5.57;;;;;;;;;;4916360;28;20558;-60
2022/07/23 09:58:52;;;;;;;6.03;5.43;;;;;;;;;;4939723;28;20435;-60
2022/07/23 10:01:18;;;;;;;6.03;5.43;;;;;;;;;;4896889;28;20934;-60
2022/07/23 10:03:44;;;;;;;7.73;6.93;;;;;;;;;;4941358;28;20461;-58
2022/07/23 10:06:13;;;;;;;6.27;5.63;;;;;;;;;;4918085;28;21090;-61
2022/07/23 10:08:42;;;;;;;6.20;5.70;;;;;;;;;;4940087;28;21210;-60
2022/07/23 10:11:08;;;;;;;7.20;5.83;;;;;;;;;;4924384;28;20446;-59
2022/07/23 10:13:54;;;;;;;7.07;6.40;;;;;;;;;;4942609;28;20474;-59
2022/07/23 10:16:34;;;;;;;6.23;5.30;;;;;;;;;;4896849;28;20447;-60
2022/07/23 10:19:01;;;;;;;10.30;5.70;;;;;;;;;;4942002;28;20955;-61
2022/07/23 10:21:47;;;;;;;6.57;5.87;;;;;;;;;;4939764;28;20562;-59
2022/07/23 10:24:18;;;;;;;5.80;5.23;;;;;;;;;;4934864;28;20534;-61
2022/07/23 10:26:53;;;;;;;6.87;6.20;;;;;;;;;;4909471;28;20491;-58
2022/07/23 10:29:32;;;;;;;5.90;5.40;;;;;;;;;;4942354;28;20840;-59
2022/07/23 10:32:28;;;;;;;6.63;5.90;;;;;;;;;;4901769;28;21508;-60
2022/07/23 10:34:54;;;;;;;5.97;5.37;;;;;;;;;;4941806;28;20439;-59
2022/07/23 10:37:27;;;;;;;5.70;5.20;;;;;;;;;;4922397;28;20851;-59
2022/07/23 10:40:23;;;;;;;6.20;5.60;;;;;;;;;;4941005;28;20187;-59
2022/07/23 10:42:51;;;;;;;6.00;5.40;;;;;;;;;;4939766;28;20477;-60
2022/07/23 10:45:36;;;;;;;7.03;5.13;;;;;;;;;;4918537;28;20458;-60
2022/07/23 10:48:32;;;;;;;6.90;6.20;;;;;;;;;;4920111;28;20446;-60
2022/07/23 10:51:08;;;;;;;6.43;5.70;;;;;;;;;;4947063;28;20446;-59
2022/07/23 10:53:55;;;;;;;6.63;5.90;;;;;;;;;;4944326;28;20441;-60
2022/07/23 10:56:39;;;;;;;6.87;6.17;;;;;;;;;;4915855;28;20542;-62
2022/07/23 10:59:05;;;;;;;6.73;5.97;;;;;;;;;;4945901;28;20455;-61
2022/07/23 11:01:38;;;;;;;6.50;5.90;;;;;;;;;;4925204;28;21215;-61
2022/07/23 11:04:06;;;;;;;6.40;5.80;;;;;;;;;;4939282;28;20212;-60
2022/07/23 11:07:01;;;;;;;7.57;6.80;;;;;;;;;;4903943;28;20458;-60
2022/07/23 11:09:27;;;;;;;6.23;5.73;;;;;;;;;;4941036;28;20555;-61
2022/07/23 11:12:12;;;;;;;7.70;7.00;;;;;;;;;;4917434;28;20466;-60
2022/07/23 11:14:57;;;;;;;7.40;6.60;;;;;;;;;;4906242;28;20431;-58
2022/07/23 11:17:24;;;;;;;7.10;6.50;;;;;;;;;;4932194;28;20445;-60
2022/07/23 11:20:15;;;;;;;6.77;6.07;;;;;;;;;;4908191;28;20479;-59
2022/07/23 11:22:48;;;;;;;6.63;6.13;;;;;;;;;;4942881;28;20745;-61
2022/07/23 11:25:37;;;;;;;7.13;6.47;;;;;;;;;;4940989;28;20435;-59
2022/07/23 11:31:17;;;;;;;8.47;6.50;;;;;;;;;;4912582;28;20886;-60
2022/07/23 11:33:53;;;;;;;7.13;6.53;;;;;;;;;;4941145;28;20432;-60
2022/07/23 11:36:24;;;;;;;7.90;6.77;;;;;;;;;;4937405;28;20537;-58
2022/07/23 11:41:54;;;;;;;6.63;6.03;;;;;;;;;;4894257;28;21010;-59
2022/07/23 11:44:33;;;;;;;7.87;7.20;;;;;;;;;;4939941;28;21010;-60
2022/07/23 11:47:16;;;;;;;8.20;6.53;;;;;;;;;;4908388;28;20462;-59
2022/07/23 11:53:05;;;;;;;7.10;6.40;;;;;;;;;;4911662;28;20481;-59
2022/07/23 11:55:37;;;;;;;6.90;6.30;;;;;;;;;;4922100;28;20458;-59
2022/07/23 11:58:03;;;;;;;7.40;6.70;;;;;;;;;;4928437;28;20471;-59
2022/07/23 12:00:30;;;;;;;7.23;6.60;;;;;;;;;;4934825;28;20480;-60
2022/07/23 12:02:58;;;;;;;7.30;6.60;;;;;;;;;;4936211;28;20429;-60
2022/07/23 12:05:30;;;;;;;7.60;6.80;;;;;;;;;;4919764;28;20474;-59
2022/07/23 12:07:56;;;;;;;6.83;6.23;;;;;;;;;;4939324;28;20526;-58
2022/07/23 12:10:36;;;;;;;6.90;6.30;;;;;;;;;;4935208;28;20454;-60
2022/07/23 12:16:07;;;;;;;6.57;5.97;;;;;;;;;;4921309;28;20449;-60
2022/07/23 12:18:33;;;;;;;7.90;7.10;;;;;;;;;;4943843;28;20489;-61
2022/07/23 12:21:03;;;;;;;7.90;7.10;;;;;;;;;;4952250;28;20478;-59
2022/07/23 12:23:40;;;;;;;7.23;6.63;;;;;;;;;;4935050;28;20443;-60
2022/07/23 12:26:08;;;;;;;7.20;6.50;;;;;;;;;;4946451;28;20454;-60
2022/07/23 12:28:37;;;;;;;7.70;6.47;;;;;;;;;;4928340;28;20489;-60
2022/07/23 12:31:05;;;;;;;7.20;6.50;;;;;;;;;;4948021;28;20450;-59
2022/07/23 12:33:35;;;;;;;7.50;6.80;;;;;;;;;;4949663;28;21200;-59
2022/07/23 12:36:03;;;;;;;7.40;6.50;;;;;;;;;;4947667;28;21508;-60
2022/07/23 12:38:44;;;;;;;7.97;7.20;;;;;;;;;;4944797;28;20442;-60
2022/07/23 12:41:13;;;;;;;7.50;6.90;;;;;;;;;;4928423;28;21147;-62
2022/07/23 12:43:43;;;;;;;7.60;6.83;;;;;;;;;;4938635;28;20442;-60
2022/07/23 12:46:09;;;;;;;8.23;6.90;;;;;;;;;;4941879;28;20540;-58
2022/07/23 12:48:43;;;;;;;7.83;7.03;;;;;;;;;;4942486;28;20469;-64
2022/07/23 12:51:18;;;;;;;7.37;6.77;;;;;;;;;;4938607;28;20967;-59
2022/07/23 12:53:45;;;;;;;7.47;6.73;;;;;;;;;;4926018;28;21360;-61
2022/07/23 12:56:11;;;;;;;7.53;7.00;;;;;;;;;;4874744;28;20446;-61
2022/07/23 12:58:50;;;;;;;7.10;6.50;;;;;;;;;;4942620;28;20456;-62
2022/07/23 13:01:22;;;;;;;7.30;6.70;;;;;;;;;;4919854;28;20230;-60
2022/07/23 13:04:00;;;;;;;6.50;6.00;;;;;;;;;;4948055;28;20447;-60
2022/07/23 13:06:27;;;;;;;8.30;7.60;;;;;;;;;;4930154;28;20447;-62
2022/07/23 13:08:53;;;;;;;6.83;6.23;;;;;;;;;;4931738;28;20442;-61
2022/07/23 13:11:19;;;;;;;7.50;6.90;;;;;;;;;;4925759;28;20451;-60
2022/07/23 13:13:45;;;;;;;7.07;6.40;;;;;;;;;;4943351;28;20187;-61
2022/07/23 13:16:37;;;;;;;9.10;6.73;;;;;;;;;;4918782;28;20475;-61
2022/07/23 13:19:11;;;;;;;7.53;6.73;;;;;;;;;;4925612;28;20447;-63
2022/07/23 13:21:52;;;;;;;7.07;6.47;;;;;;;;;;4919269;28;20477;-62
2022/07/23 13:24:18;;;;;;;7.37;6.77;;;;;;;;;;4908643;28;20462;-61
2022/07/23 13:26:49;;;;;;;7.40;6.70;;;;;;;;;;4941919;28;20527;-62
2022/07/23 13:29:15;;;;;;;8.17;7.30;;;;;;;;;;4926781;28;21012;-62
2022/07/23 13:31:41;;;;;;;7.27;6.60;;;;;;;;;;4944170;28;20442;-64
2022/07/23 13:34:07;;;;;;;7.30;6.43;;;;;;;;;;4917383;28;20863;-61
2022/07/23 13:36:33;;;;;;;7.40;6.80;;;;;;;;;;4941798;28;21001;-63
2022/07/23 13:38:59;;;;;;;9.13;7.77;;;;;;;;;;4906406;28;20602;-60
2022/07/23 13:41:25;;;;;;;6.83;6.23;;;;;;;;;;4939046;28;20629;-60
2022/07/23 13:43:51;;;;;;;7.13;6.53;;;;;;;;;;4926195;28;20898;-60
2022/07/23 13:46:17;;;;;;;7.20;6.60;;;;;;;;;;4940440;28;20443;-61
2022/07/23 13:48:50;;;;;;;7.07;6.43;;;;;;;;;;4928022;28;20198;-59
2022/07/23 13:51:17;;;;;;;7.47;6.77;;;;;;;;;;4944916;28;20434;-61
2022/07/23 13:53:44;;;;;;;7.37;6.77;;;;;;;;;;4913935;28;24252;-61
2022/07/23 13:56:10;;;;;;;7.60;7.00;;;;;;;;;;4943929;28;20949;-62
2022/07/23 13:58:36;;;;;;;7.63;7.00;;;;;;;;;;4924000;28;20647;-62
2022/07/23 14:01:03;;;;;;;7.50;6.80;;;;;;;;;;4949852;28;20790;-61
2022/07/23 14:03:29;;;;;;;7.23;6.63;;;;;;;;;;4941857;28;20504;-61
2022/07/23 14:05:55;;;;;;;7.13;6.53;;;;;;;;;;4915659;28;20490;-60
2022/07/23 14:08:21;;;;;;;7.10;6.50;;;;;;;;;;4944415;28;20521;-62
2022/07/23 14:10:48;;;;;;;7.97;7.30;;;;;;;;;;4915370;28;20453;-62
2022/07/23 14:13:14;;;;;;;7.60;7.00;;;;;;;;;;4940494;28;20435;-60
2022/07/23 14:16:09;;;;;;;8.50;7.70;;;;;;;;;;4935135;28;20474;-64
2022/07/23 14:18:44;;;;;;;7.57;6.87;;;;;;;;;;4910442;28;20960;-62
2022/07/23 14:21:48;;;;;;;7.40;6.70;;;;;;;;;;4935399;28;20679;-63
2022/07/23 14:24:14;;;;;;;12.10;7.37;;;;;;;;;;4938367;28;20228;-60
2022/07/23 14:26:40;;;;;;;8.67;7.70;;;;;;;;;;4904593;28;20581;-59
2022/07/23 14:29:06;;;;;;;8.20;7.50;;;;;;;;;;4952783;28;20439;-61
2022/07/23 14:31:48;;;;;;;7.67;6.90;;;;;;;;;;4932272;28;21129;-62
2022/07/23 14:34:16;;;;;;;6.97;6.27;;;;;;;;;;4945975;28;20490;-59
2022/07/23 14:36:42;;;;;;;7.97;7.27;;;;;;;;;;4929402;28;20486;-62
2022/07/23 14:39:08;;;;;;;7.60;6.80;;;;;;;;;;4940108;28;20494;-60
2022/07/23 14:41:49;;;;;;;8.03;7.33;;;;;;;;;;4938717;28;20482;-60
2022/07/23 14:44:15;;;;;;;8.63;7.40;;;;;;;;;;4942716;28;20505;-59
2022/07/23 14:46:41;;;;;;;8.60;7.80;;;;;;;;;;4924671;28;20451;-61
2022/07/23 14:49:07;;;;;;;7.70;6.90;;;;;;;;;;4939079;28;20462;-60
2022/07/23 14:51:33;;;;;;;9.90;7.97;;;;;;;;;;4908195;28;20518;-60
2022/07/23 14:54:20;;;;;;;8.13;7.43;;;;;;;;;;4922622;28;20557;-60
2022/07/23 14:56:47;;;;;;;7.00;6.33;;;;;;;;;;4910367;28;20438;-60
2022/07/23 14:59:13;;;;;;;9.07;8.17;;;;;;;;;;4929612;28;20434;-59
2022/07/23 15:01:40;;;;;;;7.93;7.20;;;;;;;;;;4900096;28;21577;-62
2022/07/23 15:07:23;;;;;;;7.90;7.20;;;;;;;;;;4917562;28;20446;-60
2022/07/23 15:09:49;;;;;;;8.27;6.90;;;;;;;;;;4910227;28;20874;-62
2022/07/23 15:12:15;;;;;;;8.67;7.87;;;;;;;;;;4947587;28;20434;-60
2022/07/23 15:14:43;;;;;;;9.50;8.70;;;;;;;;;;4933987;28;21024;-58
2022/07/23 15:17:11;;;;;;;8.10;7.37;;;;;;;;;;4932902;28;20940;-61
2022/07/23 15:19:37;;;;;;;8.40;7.60;;;;;;;;;;4927360;28;21314;-61
2022/07/23 15:22:04;;;;;;;8.40;7.70;;;;;;;;;;4926214;28;21093;-60
2022/07/23 15:24:30;;;;;;;8.97;8.10;;;;;;;;;;4910251;28;20441;-60